Robijn — PBEJ — position and weather

sailwx.info

Track history (hours):
 
Tides and Currents Weather Stations Pressure Air Temp Water Temp Dewpoint Dewpoint Depression Visibility Wind Speed Wind Dir Waves Ship Positions

Robijn

Last reported at 2016-Dec-02 15:32 UTC. Time now 2016-Dec-03 00:25 UTC.
Position N 53°08' E 004°29'.

Length 90 m; draft 4.9 m.

Type: Cargo ship. MMSI: 245909000.

Date/timePositionNaut miles runAvg speedWind from/ knotsBaromVisibWave heightAir tempDewpointWater temp
2016-Dec-02 15:32N 53°08' E 004°29'10 9.8
2016-Dec-02 14:33N 52°59' E 004°22'9 9.4
2016-Dec-02 13:33N 52°51' E 004°15'9 9.1
2016-Dec-02 12:33N 52°43' E 004°07'8 8.5
2016-Dec-02 11:34N 52°35' E 004°06'9 9.4
2016-Dec-02 10:34N 52°30' E 004°19'10 9.7
2016-Dec-02 09:33N 52°28' E 004°35'1 1.1
2016-Dec-02 08:33N 52°28' E 004°36'0 0.0
2016-Dec-02 07:33N 52°28' E 004°36'0 0.0
2016-Dec-02 06:33N 52°28' E 004°36'0 0.0
2016-Dec-02 05:33N 52°28' E 004°36'0 0.0
2016-Dec-02 04:30N 52°28' E 004°36'0 0.0
2016-Dec-02 03:33N 52°28' E 004°36'0 0.0
2016-Dec-02 02:33N 52°28' E 004°36'0 0.0
2016-Dec-02 01:33N 52°28' E 004°36'0 0.0
2016-Dec-02 00:33N 52°28' E 004°36'0 0.0
2016-Dec-01 23:33N 52°28' E 004°36'0 0.0
2016-Dec-01 22:33N 52°28' E 004°36'0 0.0
2016-Dec-01 21:33N 52°28' E 004°36'0 0.0
2016-Dec-01 20:33N 52°28' E 004°36'0 0.0
2016-Dec-01 19:33N 52°28' E 004°36'0 0.1
2016-Dec-01 18:33N 52°28' E 004°36'0 0.0
2016-Dec-01 17:33N 52°28' E 004°36'0 0.0
2016-Dec-01 16:33N 52°28' E 004°36'0 0.0
2016-Dec-01 15:30N 52°28' E 004°36'0 0.0
2016-Dec-01 14:33N 52°28' E 004°36'0 0.0
2016-Dec-01 13:33N 52°28' E 004°36'0 0.1
2016-Dec-01 12:34N 52°28' E 004°36'0 0.0
2016-Dec-01 11:34N 52°28' E 004°36'0 0.4
2016-Dec-01 10:34N 52°28' E 004°37'8 8.0
2016-Dec-01 09:33N 52°25' E 004°49'0 0.0
2016-Dec-01 08:33N 52°25' E 004°49'0 0.0
2016-Dec-01 07:33N 52°25' E 004°49'0 0.0
2016-Dec-01 06:33N 52°25' E 004°49'0 0.0
2016-Dec-01 05:33N 52°25' E 004°49'0 0.0
2016-Dec-01 04:33N 52°25' E 004°49'0 0.0
2016-Dec-01 03:33N 52°25' E 004°49'0 0.0
2016-Dec-01 02:33N 52°25' E 004°49'0 0.0
2016-Dec-01 01:33N 52°25' E 004°49'0 0.0
2016-Dec-01 00:33N 52°25' E 004°49'0 0.0
2016-Nov-30 23:33N 52°25' E 004°49'0 0.0
2016-Nov-30 22:31N 52°25' E 004°49'0 0.0
2016-Nov-30 21:31N 52°25' E 004°49'0 0.0
2016-Nov-30 20:31N 52°25' E 004°49'0 0.0
2016-Nov-30 19:31N 52°25' E 004°49'0 0.0
2016-Nov-30 18:31N 52°25' E 004°49'0 0.0
2016-Nov-30 17:31N 52°25' E 004°49'0 0.0
2016-Nov-30 16:31N 52°25' E 004°49'0 0.0
2016-Nov-30 15:31N 52°25' E 004°49'0 0.2
2016-Nov-30 14:31N 52°25' E 004°49'0 0.0
2016-Nov-30 13:31N 52°25' E 004°49'0 0.0
2016-Nov-30 12:31N 52°25' E 004°49'0 0.0
2016-Nov-30 11:28N 52°25' E 004°49'0 0.0
2016-Nov-30 10:31N 52°25' E 004°49'0 0.0
2016-Nov-30 09:31N 52°25' E 004°49'0 0.0
2016-Nov-30 08:33N 52°25' E 004°49'8 8.0
2016-Nov-30 07:33N 52°28' E 004°37'5 4.7
2016-Nov-30 06:33N 52°29' E 004°29'7 7.4
2016-Nov-30 05:33N 52°37' E 004°29'8 7.7
2016-Nov-30 04:33N 52°44' E 004°31'7 7.4
2016-Nov-30 03:33N 52°52' E 004°32'9 7.7
2016-Nov-30 02:23N 53°01' E 004°32'36 7.4
2016-Nov-29 21:33N 53°33' E 004°59'9 9.0
2016-Nov-29 20:33N 53°36' E 005°13'8 8.5
2016-Nov-29 19:33N 53°38' E 005°27'8 8.3
2016-Nov-29 18:33N 53°41' E 005°40'8 8.5
2016-Nov-29 17:33N 53°44' E 005°53'38 8.9
2016-Nov-29 13:15N 53°54' E 006°56'7 9.2
2016-Nov-29 12:28N 53°56' E 007°08'8 9.0
2016-Nov-29 11:33N 53°58' E 007°21'9 9.1
2016-Nov-29 10:33N 54°00' E 007°36'9 9.3
2016-Nov-29 09:33N 54°01' E 007°52'9 9.0
2016-Nov-29 08:33N 54°01' E 008°07'9 8.7
2016-Nov-29 07:33N 53°60' E 008°22'1010.1
2016-Nov-29 06:33N 53°57' E 008°38'1212.0
2016-Nov-29 05:33N 53°51' E 008°56'8 8.2
2016-Nov-29 04:33N 53°54' E 009°09'5 5.5
2016-Nov-29 03:33N 53°58' E 009°15'8 8.3
2016-Nov-29 02:33N 54°06' E 009°20'22 7.5
2016-Nov-28 23:33N 54°21' E 009°47'8 7.6
2016-Nov-28 22:33N 54°21' E 009°60'3 2.6
2016-Nov-28 21:33N 54°22' E 010°04'3 2.8
2016-Nov-28 20:33N 54°22' E 010°09'6 6.4
2016-Nov-28 19:33N 54°27' E 010°14'1110.9
2016-Nov-28 18:33N 54°33' E 010°30'1110.6
2016-Nov-28 17:33N 54°35' E 010°48'1110.8
2016-Nov-28 16:33N 54°36' E 011°07'1111.0
2016-Nov-28 15:33N 54°32' E 011°24'1111.3
2016-Nov-28 14:33N 54°27' E 011°42'10 9.7
2016-Nov-28 13:33N 54°22' E 011°56'1010.3
2016-Nov-28 12:33N 54°13' E 012°04'4 2.9
2016-Nov-28 11:16N 54°09' E 012°07'0 0.0
2016-Nov-28 10:28N 54°09' E 012°07'0 0.0
2016-Nov-28 09:13N 54°09' E 012°07'0 0.0
2016-Nov-28 06:28N 54°09' E 012°07'0 0.0
2016-Nov-28 05:31N 54°09' E 012°07'0 0.0
2016-Nov-28 03:31N 54°09' E 012°07'0 0.0
2016-Nov-28 01:28N 54°09' E 012°07'0 0.0
2016-Nov-27 20:31N 54°09' E 012°07'0 0.0
2016-Nov-27 15:30N 54°09' E 012°06'8 8.0
2016-Nov-27 14:32N 54°16' E 012°02'8 7.9
2016-Nov-27 13:33N 54°23' E 012°08'11 8.6
2016-Nov-27 12:16N 54°34' E 012°14'7 9.4
2016-Nov-27 11:33N 54°39' E 012°21'47 9.3
2016-Nov-27 06:30N 54°59' E 013°35'9 9.5
2016-Nov-27 05:33N 55°02' E 013°49'10 9.6
2016-Nov-27 04:33N 55°07' E 014°04'10 9.9
2016-Nov-27 03:33N 55°13' E 014°17'1110.5
2016-Nov-27 02:33N 55°21' E 014°29'1010.2
2016-Nov-27 01:33N 55°28' E 014°42'10 9.9
2016-Nov-27 00:33N 55°33' E 014°57'10 9.8
2016-Nov-26 23:33N 55°38' E 015°13'  
Track history (hours):
 
Tides and Currents Weather Stations Pressure Air Temp Water Temp Dewpoint Dewpoint Depression Visibility Wind Speed Wind Dir Waves Ship Positions

Robijn

Last reported at 2016-Dec-02 15:32 UTC. Time now 2016-Dec-03 00:25 UTC.
Position N 53°08' E 004°29'.

Length 90 m; draft 4.9 m.

Type: Cargo ship. MMSI: 245909000.

Date/timePositionNaut miles runAvg speedWind from/ knotsBaromVisibWave heightAir tempDewpointWater temp
2016-Dec-02 15:32N 53°08' E 004°29'10 9.8
2016-Dec-02 14:33N 52°59' E 004°22'9 9.4
2016-Dec-02 13:33N 52°51' E 004°15'9 9.1
2016-Dec-02 12:33N 52°43' E 004°07'8 8.5
2016-Dec-02 11:34N 52°35' E 004°06'9 9.4
2016-Dec-02 10:34N 52°30' E 004°19'10 9.7
2016-Dec-02 09:33N 52°28' E 004°35'1 1.1
2016-Dec-02 08:33N 52°28' E 004°36'0 0.0
2016-Dec-02 07:33N 52°28' E 004°36'0 0.0
2016-Dec-02 06:33N 52°28' E 004°36'0 0.0
2016-Dec-02 05:33N 52°28' E 004°36'0 0.0
2016-Dec-02 04:30N 52°28' E 004°36'0 0.0
2016-Dec-02 03:33N 52°28' E 004°36'0 0.0
2016-Dec-02 02:33N 52°28' E 004°36'0 0.0
2016-Dec-02 01:33N 52°28' E 004°36'0 0.0
2016-Dec-02 00:33N 52°28' E 004°36'0 0.0
2016-Dec-01 23:33N 52°28' E 004°36'0 0.0
2016-Dec-01 22:33N 52°28' E 004°36'0 0.0
2016-Dec-01 21:33N 52°28' E 004°36'0 0.0
2016-Dec-01 20:33N 52°28' E 004°36'0 0.0
2016-Dec-01 19:33N 52°28' E 004°36'0 0.1
2016-Dec-01 18:33N 52°28' E 004°36'0 0.0
2016-Dec-01 17:33N 52°28' E 004°36'0 0.0
2016-Dec-01 16:33N 52°28' E 004°36'0 0.0
2016-Dec-01 15:30N 52°28' E 004°36'0 0.0
2016-Dec-01 14:33N 52°28' E 004°36'0 0.0
2016-Dec-01 13:33N 52°28' E 004°36'0 0.1
2016-Dec-01 12:34N 52°28' E 004°36'0 0.0
2016-Dec-01 11:34N 52°28' E 004°36'0 0.4
2016-Dec-01 10:34N 52°28' E 004°37'8 8.0
2016-Dec-01 09:33N 52°25' E 004°49'0 0.0
2016-Dec-01 08:33N 52°25' E 004°49'0 0.0
2016-Dec-01 07:33N 52°25' E 004°49'0 0.0
2016-Dec-01 06:33N 52°25' E 004°49'0 0.0
2016-Dec-01 05:33N 52°25' E 004°49'0 0.0
2016-Dec-01 04:33N 52°25' E 004°49'0 0.0
2016-Dec-01 03:33N 52°25' E 004°49'0 0.0
2016-Dec-01 02:33N 52°25' E 004°49'0 0.0
2016-Dec-01 01:33N 52°25' E 004°49'0 0.0
2016-Dec-01 00:33N 52°25' E 004°49'0 0.0
2016-Nov-30 23:33N 52°25' E 004°49'0 0.0
2016-Nov-30 22:31N 52°25' E 004°49'0 0.0
2016-Nov-30 21:31N 52°25' E 004°49'0 0.0
2016-Nov-30 20:31N 52°25' E 004°49'0 0.0
2016-Nov-30 19:31N 52°25' E 004°49'0 0.0
2016-Nov-30 18:31N 52°25' E 004°49'0 0.0
2016-Nov-30 17:31N 52°25' E 004°49'0 0.0
2016-Nov-30 16:31N 52°25' E 004°49'0 0.0
2016-Nov-30 15:31N 52°25' E 004°49'0 0.2
2016-Nov-30 14:31N 52°25' E 004°49'0 0.0
2016-Nov-30 13:31N 52°25' E 004°49'0 0.0
2016-Nov-30 12:31N 52°25' E 004°49'0 0.0
2016-Nov-30 11:28N 52°25' E 004°49'0 0.0
2016-Nov-30 10:31N 52°25' E 004°49'0 0.0
2016-Nov-30 09:31N 52°25' E 004°49'0 0.0
2016-Nov-30 08:33N 52°25' E 004°49'8 8.0
2016-Nov-30 07:33N 52°28' E 004°37'5 4.7
2016-Nov-30 06:33N 52°29' E 004°29'7 7.4
2016-Nov-30 05:33N 52°37' E 004°29'8 7.7
2016-Nov-30 04:33N 52°44' E 004°31'7 7.4
2016-Nov-30 03:33N 52°52' E 004°32'9 7.7
2016-Nov-30 02:23N 53°01' E 004°32'36 7.4
2016-Nov-29 21:33N 53°33' E 004°59'9 9.0
2016-Nov-29 20:33N 53°36' E 005°13'8 8.5
2016-Nov-29 19:33N 53°38' E 005°27'8 8.3
2016-Nov-29 18:33N 53°41' E 005°40'8 8.5
2016-Nov-29 17:33N 53°44' E 005°53'38 8.9
2016-Nov-29 13:15N 53°54' E 006°56'7 9.2
2016-Nov-29 12:28N 53°56' E 007°08'8 9.0
2016-Nov-29 11:33N 53°58' E 007°21'9 9.1
2016-Nov-29 10:33N 54°00' E 007°36'9 9.3
2016-Nov-29 09:33N 54°01' E 007°52'9 9.0
2016-Nov-29 08:33N 54°01' E 008°07'9 8.7
2016-Nov-29 07:33N 53°60' E 008°22'1010.1
2016-Nov-29 06:33N 53°57' E 008°38'1212.0
2016-Nov-29 05:33N 53°51' E 008°56'8 8.2
2016-Nov-29 04:33N 53°54' E 009°09'5 5.5
2016-Nov-29 03:33N 53°58' E 009°15'8 8.3
2016-Nov-29 02:33N 54°06' E 009°20'22 7.5
2016-Nov-28 23:33N 54°21' E 009°47'8 7.6
2016-Nov-28 22:33N 54°21' E 009°60'3 2.6
2016-Nov-28 21:33N 54°22' E 010°04'3 2.8
2016-Nov-28 20:33N 54°22' E 010°09'6 6.4
2016-Nov-28 19:33N 54°27' E 010°14'1110.9
2016-Nov-28 18:33N 54°33' E 010°30'1110.6
2016-Nov-28 17:33N 54°35' E 010°48'1110.8
2016-Nov-28 16:33N 54°36' E 011°07'1111.0
2016-Nov-28 15:33N 54°32' E 011°24'1111.3
2016-Nov-28 14:33N 54°27' E 011°42'10 9.7
2016-Nov-28 13:33N 54°22' E 011°56'1010.3
2016-Nov-28 12:33N 54°13' E 012°04'4 2.9
2016-Nov-28 11:16N 54°09' E 012°07'0 0.0
2016-Nov-28 10:28N 54°09' E 012°07'0 0.0
2016-Nov-28 09:13N 54°09' E 012°07'0 0.0
2016-Nov-28 06:28N 54°09' E 012°07'0 0.0
2016-Nov-28 05:31N 54°09' E 012°07'0 0.0
2016-Nov-28 03:31N 54°09' E 012°07'0 0.0
2016-Nov-28 01:28N 54°09' E 012°07'0 0.0
2016-Nov-27 20:31N 54°09' E 012°07'0 0.0
2016-Nov-27 15:30N 54°09' E 012°06'8 8.0
2016-Nov-27 14:32N 54°16' E 012°02'8 7.9
2016-Nov-27 13:33N 54°23' E 012°08'11 8.6
2016-Nov-27 12:16N 54°34' E 012°14'7 9.4
2016-Nov-27 11:33N 54°39' E 012°21'47 9.3
2016-Nov-27 06:30N 54°59' E 013°35'9 9.5
2016-Nov-27 05:33N 55°02' E 013°49'10 9.6
2016-Nov-27 04:33N 55°07' E 014°04'10 9.9
2016-Nov-27 03:33N 55°13' E 014°17'1110.5
2016-Nov-27 02:33N 55°21' E 014°29'1010.2
2016-Nov-27 01:33N 55°28' E 014°42'10 9.9
2016-Nov-27 00:33N 55°33' E 014°57'10 9.8
2016-Nov-26 23:33N 55°38' E 015°13'  

Dump ship's entire track history